AUA57C LIRN-LOWW
Flight info
| Callsign | AUA57C |
|---|---|
| Flight time | N/A |
| Altitude | 38000 |
| Route | BEDPI DCT MOLUX DCT VAPUP DCT NIVES DCT OBUTI OBUTI2W |
| Aircraft | A20N/M-SDE2E3FGHIJ1RWXY/LB1 |
Departure
| Time | 2026-05-06 06:39 |
|---|---|
| Airport | Naples International Airport (LIRN) |
Arrival
| Time | N/A |
|---|---|
| Airport | Vienna International Airport (LOWW) |
| Time | Latitude | Longitude | Altitude | Speed | Heading |
|---|---|---|---|---|---|
| 2026-05-06 06:07 | 40.87812 | 14.28043 | 298 ft | 0 kts | 142° |
| 2026-05-06 06:25 | 40.87835 | 14.28020 | 297 ft | 2 kts | 142° |
| 2026-05-06 06:26 | 40.87846 | 14.28009 | 296 ft | 1 kts | 141° |
| 2026-05-06 06:26 | 40.87854 | 14.28000 | 296 ft | 2 kts | 126° |
| 2026-05-06 06:26 | 40.87860 | 14.27982 | 296 ft | 2 kts | 99° |
| 2026-05-06 06:26 | 40.87860 | 14.27962 | 296 ft | 2 kts | 74° |
| 2026-05-06 06:27 | 40.87855 | 14.27948 | 296 ft | 0 kts | 54° |
| 2026-05-06 06:27 | 40.87851 | 14.27941 | 296 ft | 0 kts | 50° |
| 2026-05-06 06:27 | 40.87850 | 14.27940 | 296 ft | 0 kts | 51° |
| 2026-05-06 06:28 | 40.87854 | 14.27946 | 296 ft | 3 kts | 51° |
| 2026-05-06 06:28 | 40.87880 | 14.27991 | 295 ft | 9 kts | 51° |
| 2026-05-06 06:29 | 40.87928 | 14.28067 | 293 ft | 11 kts | 50° |
| 2026-05-06 06:29 | 40.87996 | 14.28127 | 290 ft | 12 kts | 25° |
| 2026-05-06 06:29 | 40.88050 | 14.28201 | 289 ft | 11 kts | 57° |
| 2026-05-06 06:29 | 40.88064 | 14.28297 | 290 ft | 9 kts | 95° |
| 2026-05-06 06:30 | 40.88057 | 14.28379 | 291 ft | 8 kts | 97° |
| 2026-05-06 06:30 | 40.88050 | 14.28455 | 291 ft | 8 kts | 97° |
| 2026-05-06 06:30 | 40.88042 | 14.28530 | 291 ft | 8 kts | 98° |
| 2026-05-06 06:30 | 40.88052 | 14.28618 | 289 ft | 11 kts | 58° |
| 2026-05-06 06:31 | 40.88106 | 14.28714 | 285 ft | 14 kts | 52° |
| 2026-05-06 06:31 | 40.88174 | 14.28830 | 280 ft | 17 kts | 52° |
| 2026-05-06 06:31 | 40.88238 | 14.28941 | 274 ft | 10 kts | 52° |
| 2026-05-06 06:31 | 40.88289 | 14.29028 | 270 ft | 13 kts | 52° |
| 2026-05-06 06:32 | 40.88353 | 14.29141 | 264 ft | 17 kts | 53° |
| 2026-05-06 06:32 | 40.88401 | 14.29223 | 262 ft | 11 kts | 52° |
| 2026-05-06 06:32 | 40.88454 | 14.29316 | 259 ft | 12 kts | 53° |
| 2026-05-06 06:32 | 40.88506 | 14.29405 | 257 ft | 10 kts | 52° |
| 2026-05-06 06:33 | 40.88549 | 14.29480 | 257 ft | 10 kts | 52° |
| 2026-05-06 06:33 | 40.88602 | 14.29569 | 254 ft | 13 kts | 52° |
| 2026-05-06 06:33 | 40.88658 | 14.29666 | 251 ft | 12 kts | 53° |
| 2026-05-06 06:33 | 40.88712 | 14.29762 | 250 ft | 13 kts | 52° |
| 2026-05-06 06:34 | 40.88763 | 14.29850 | 247 ft | 13 kts | 52° |
| 2026-05-06 06:34 | 40.88813 | 14.29937 | 244 ft | 12 kts | 52° |
| 2026-05-06 06:34 | 40.88863 | 14.30023 | 240 ft | 9 kts | 52° |
| 2026-05-06 06:34 | 40.88914 | 14.30112 | 236 ft | 14 kts | 52° |
| 2026-05-06 06:35 | 40.88968 | 14.30204 | 231 ft | 12 kts | 52° |
| 2026-05-06 06:35 | 40.89014 | 14.30285 | 229 ft | 11 kts | 53° |
| 2026-05-06 06:35 | 40.89068 | 14.30378 | 226 ft | 9 kts | 52° |
| 2026-05-06 06:35 | 40.89120 | 14.30447 | 223 ft | 12 kts | 21° |
| 2026-05-06 06:36 | 40.89198 | 14.30419 | 224 ft | 11 kts | 307° |
| 2026-05-06 06:36 | 40.89192 | 14.30323 | 225 ft | 8 kts | 239° |
| 2026-05-06 06:36 | 40.89185 | 14.30310 | 226 ft | 0 kts | 236° |
| 2026-05-06 06:37 | 40.89186 | 14.30311 | 226 ft | 0 kts | 236° |
| 2026-05-06 06:38 | 40.89175 | 14.30290 | 227 ft | 20 kts | 237° |
| 2026-05-06 06:38 | 40.88956 | 14.29822 | 246 ft | 96 kts | 238° |
| 2026-05-06 06:38 | 40.88478 | 14.28813 | 280 ft | 156 kts | 238° |
| 2026-05-06 06:39 | 40.87903 | 14.27579 | 852 ft | 161 kts | 239° |
| 2026-05-06 06:39 | 40.87315 | 14.26316 | 1502 ft | 166 kts | 237° |
| 2026-05-06 06:39 | 40.86483 | 14.25321 | 2171 ft | 170 kts | 200° |
| 2026-05-06 06:39 | 40.85278 | 14.25263 | 2710 ft | 185 kts | 161° |
| 2026-05-06 06:40 | 40.84136 | 14.26081 | 3379 ft | 193 kts | 152° |
| 2026-05-06 06:40 | 40.82915 | 14.26800 | 4144 ft | 194 kts | 163° |
| 2026-05-06 06:40 | 40.81619 | 14.27235 | 4922 ft | 195 kts | 172° |
| 2026-05-06 06:40 | 40.80293 | 14.27508 | 5709 ft | 195 kts | 175° |
| 2026-05-06 06:41 | 40.78966 | 14.27717 | 6477 ft | 195 kts | 179° |
| 2026-05-06 06:41 | 40.77632 | 14.27859 | 7223 ft | 196 kts | 179° |
| 2026-05-06 06:41 | 40.76277 | 14.27985 | 7940 ft | 198 kts | 180° |
| 2026-05-06 06:41 | 40.74907 | 14.28115 | 8630 ft | 201 kts | 179° |
| 2026-05-06 06:42 | 40.73509 | 14.28304 | 9321 ft | 204 kts | 173° |
| 2026-05-06 06:42 | 40.72228 | 14.29134 | 9932 ft | 217 kts | 137° |
| 2026-05-06 06:42 | 40.71491 | 14.30907 | 10475 ft | 234 kts | 104° |
| 2026-05-06 06:42 | 40.71587 | 14.33126 | 10772 ft | 261 kts | 76° |
| 2026-05-06 06:43 | 40.72063 | 14.35495 | 11319 ft | 272 kts | 78° |
| 2026-05-06 06:43 | 40.72470 | 14.37945 | 12051 ft | 276 kts | 80° |
| 2026-05-06 06:43 | 40.72839 | 14.40412 | 12787 ft | 279 kts | 80° |
| 2026-05-06 06:43 | 40.73404 | 14.42843 | 13467 ft | 285 kts | 58° |
| 2026-05-06 06:44 | 40.74790 | 14.44697 | 14041 ft | 291 kts | 30° |
| 2026-05-06 06:44 | 40.76608 | 14.45995 | 14451 ft | 306 kts | 23° |
| 2026-05-06 06:44 | 40.78581 | 14.47223 | 14820 ft | 323 kts | 22° |
| 2026-05-06 06:44 | 40.80672 | 14.48554 | 15163 ft | 341 kts | 24° |
| 2026-05-06 06:45 | 40.82832 | 14.49989 | 15494 ft | 359 kts | 25° |
| 2026-05-06 06:45 | 40.85088 | 14.51535 | 16042 ft | 368 kts | 25° |
| 2026-05-06 06:45 | 40.87328 | 14.53099 | 16742 ft | 371 kts | 25° |
| 2026-05-06 06:45 | 40.89615 | 14.54709 | 17424 ft | 374 kts | 25° |
| 2026-05-06 06:46 | 40.91921 | 14.56336 | 18088 ft | 378 kts | 25° |
| 2026-05-06 06:46 | 40.94241 | 14.57975 | 18733 ft | 382 kts | 25° |
| 2026-05-06 06:46 | 40.96592 | 14.59638 | 19359 ft | 385 kts | 25° |
| 2026-05-06 06:46 | 40.98959 | 14.61313 | 19960 ft | 390 kts | 25° |
| 2026-05-06 06:47 | 41.01342 | 14.63001 | 20553 ft | 394 kts | 25° |
| 2026-05-06 06:47 | 41.03768 | 14.64722 | 21157 ft | 398 kts | 25° |
| 2026-05-06 06:47 | 41.06216 | 14.66391 | 21755 ft | 400 kts | 22° |
| 2026-05-06 06:47 | 41.08772 | 14.67900 | 22346 ft | 403 kts | 20° |
| 2026-05-06 06:48 | 41.11359 | 14.69345 | 22909 ft | 406 kts | 19° |
| 2026-05-06 06:48 | 41.13984 | 14.70797 | 23470 ft | 410 kts | 19° |
| 2026-05-06 06:48 | 41.16621 | 14.72259 | 24044 ft | 413 kts | 19° |
| 2026-05-06 06:48 | 41.19251 | 14.73728 | 24602 ft | 416 kts | 20° |
| 2026-05-06 06:49 | 41.21921 | 14.75222 | 25148 ft | 419 kts | 20° |
| 2026-05-06 06:49 | 41.24630 | 14.76757 | 25674 ft | 423 kts | 21° |
| 2026-05-06 06:49 | 41.27306 | 14.78442 | 26159 ft | 428 kts | 22° |
| 2026-05-06 06:49 | 41.30008 | 14.79980 | 26656 ft | 428 kts | 16° |
| 2026-05-06 06:50 | 41.32881 | 14.81147 | 27143 ft | 428 kts | 9° |
| 2026-05-06 06:50 | 41.35766 | 14.81914 | 27614 ft | 429 kts | 6° |
| 2026-05-06 06:50 | 41.38720 | 14.82571 | 28066 ft | 431 kts | 5° |
| 2026-05-06 06:50 | 41.41681 | 14.83204 | 28505 ft | 434 kts | 5° |
| 2026-05-06 06:51 | 41.44667 | 14.83847 | 28922 ft | 436 kts | 5° |
| 2026-05-06 06:51 | 41.47657 | 14.84498 | 29305 ft | 439 kts | 5° |
| 2026-05-06 06:51 | 41.50694 | 14.85165 | 29689 ft | 442 kts | 5° |
| 2026-05-06 06:51 | 41.53733 | 14.85838 | 30040 ft | 445 kts | 5° |
| 2026-05-06 06:52 | 41.56789 | 14.86517 | 30383 ft | 447 kts | 6° |
| 2026-05-06 06:52 | 41.59848 | 14.87198 | 30728 ft | 449 kts | 6° |
| 2026-05-06 06:52 | 41.62920 | 14.87884 | 31044 ft | 451 kts | 6° |
| 2026-05-06 06:52 | 41.66031 | 14.88580 | 31418 ft | 452 kts | 6° |
| 2026-05-06 06:53 | 41.69115 | 14.89272 | 31867 ft | 451 kts | 6° |
| 2026-05-06 06:53 | 41.72186 | 14.89963 | 32301 ft | 450 kts | 6° |
| 2026-05-06 06:53 | 41.75268 | 14.90656 | 32709 ft | 449 kts | 6° |
| 2026-05-06 06:53 | 41.78358 | 14.91352 | 33118 ft | 448 kts | 6° |
| 2026-05-06 06:54 | 41.81419 | 14.92040 | 33504 ft | 447 kts | 6° |
| 2026-05-06 06:54 | 41.84465 | 14.92726 | 33891 ft | 446 kts | 6° |
| 2026-05-06 06:54 | 41.87502 | 14.93411 | 34260 ft | 445 kts | 6° |
| 2026-05-06 06:54 | 41.90538 | 14.94098 | 34594 ft | 444 kts | 6° |
| 2026-05-06 06:55 | 41.93585 | 14.94786 | 34893 ft | 444 kts | 6° |
| 2026-05-06 06:55 | 41.96623 | 14.95473 | 35192 ft | 444 kts | 6° |
| 2026-05-06 06:55 | 41.99649 | 14.96158 | 35493 ft | 443 kts | 6° |
| 2026-05-06 06:55 | 42.02682 | 14.96846 | 35760 ft | 443 kts | 6° |
| 2026-05-06 06:56 | 42.05749 | 14.97541 | 36043 ft | 442 kts | 6° |
| 2026-05-06 06:56 | 42.08746 | 14.98223 | 36318 ft | 442 kts | 6° |
| 2026-05-06 06:56 | 42.11769 | 14.98911 | 36558 ft | 442 kts | 6° |
| 2026-05-06 06:56 | 42.14810 | 14.99602 | 36791 ft | 443 kts | 6° |
| 2026-05-06 06:57 | 42.17862 | 15.00296 | 36986 ft | 445 kts | 6° |
| 2026-05-06 06:57 | 42.20896 | 15.00987 | 37198 ft | 446 kts | 6° |
| 2026-05-06 06:57 | 42.23941 | 15.01681 | 37433 ft | 446 kts | 6° |
| 2026-05-06 06:57 | 42.27024 | 15.02384 | 37939 ft | 447 kts | 6° |
| 2026-05-06 06:58 | 42.30063 | 15.03079 | 37667 ft | 448 kts | 6° |
| 2026-05-06 06:58 | 42.33147 | 15.03785 | 38076 ft | 449 kts | 6° |
| 2026-05-06 06:58 | 42.36206 | 15.04485 | 37992 ft | 448 kts | 6° |
| 2026-05-06 06:59 | 42.42340 | 15.05894 | 37959 ft | 447 kts | 6° |
| 2026-05-06 06:59 | 42.48468 | 15.07302 | 37957 ft | 447 kts | 6° |
| 2026-05-06 07:00 | 42.54611 | 15.08717 | 37956 ft | 447 kts | 6° |
| 2026-05-06 07:00 | 42.60727 | 15.10128 | 37955 ft | 447 kts | 6° |
| 2026-05-06 07:01 | 42.66851 | 15.11544 | 37957 ft | 447 kts | 6° |
| 2026-05-06 07:01 | 42.72937 | 15.12954 | 37956 ft | 447 kts | 6° |
| 2026-05-06 07:02 | 42.79073 | 15.14378 | 37956 ft | 448 kts | 6° |
| 2026-05-06 07:02 | 42.85184 | 15.15799 | 37957 ft | 447 kts | 6° |
| 2026-05-06 07:03 | 42.91311 | 15.17227 | 37958 ft | 447 kts | 6° |
| 2026-05-06 07:03 | 42.97424 | 15.18656 | 37956 ft | 447 kts | 6° |
| 2026-05-06 07:04 | 43.03540 | 15.20089 | 37951 ft | 446 kts | 6° |
| 2026-05-06 07:04 | 43.09616 | 15.21790 | 37956 ft | 448 kts | 9° |
| 2026-05-06 07:05 | 43.15673 | 15.23695 | 37954 ft | 448 kts | 9° |
| 2026-05-06 07:05 | 43.21742 | 15.25608 | 37958 ft | 449 kts | 9° |
| 2026-05-06 07:06 | 43.27849 | 15.27530 | 37958 ft | 449 kts | 9° |
| 2026-05-06 07:06 | 43.33929 | 15.29444 | 37961 ft | 450 kts | 9° |
| 2026-05-06 07:07 | 43.40016 | 15.31361 | 37960 ft | 450 kts | 9° |
| 2026-05-06 07:07 | 43.46077 | 15.33276 | 37961 ft | 450 kts | 9° |
| 2026-05-06 07:08 | 43.52196 | 15.35213 | 37966 ft | 450 kts | 9° |
| 2026-05-06 07:08 | 43.58288 | 15.37146 | 37968 ft | 450 kts | 8° |
| 2026-05-06 07:09 | 43.64392 | 15.39087 | 37969 ft | 451 kts | 8° |
| 2026-05-06 07:09 | 43.70477 | 15.41022 | 37972 ft | 451 kts | 8° |
| 2026-05-06 07:10 | 43.76577 | 15.42969 | 37974 ft | 452 kts | 8° |
| 2026-05-06 07:10 | 43.82701 | 15.44929 | 37979 ft | 452 kts | 8° |
| 2026-05-06 07:11 | 43.88821 | 15.46891 | 37983 ft | 453 kts | 8° |
| 2026-05-06 07:11 | 43.94944 | 15.48856 | 37982 ft | 453 kts | 8° |
| 2026-05-06 07:12 | 44.01042 | 15.50818 | 37987 ft | 452 kts | 8° |
| 2026-05-06 07:12 | 44.07155 | 15.52790 | 37991 ft | 452 kts | 8° |
| 2026-05-06 07:13 | 44.13299 | 15.54776 | 37983 ft | 452 kts | 8° |
| 2026-05-06 07:13 | 44.19386 | 15.56745 | 37982 ft | 452 kts | 8° |
| 2026-05-06 07:14 | 44.25531 | 15.58741 | 37981 ft | 452 kts | 8° |
| 2026-05-06 07:14 | 44.31643 | 15.60728 | 37982 ft | 453 kts | 8° |
| 2026-05-06 07:15 | 44.37743 | 15.62717 | 37985 ft | 452 kts | 8° |
| 2026-05-06 07:15 | 44.43856 | 15.64715 | 37982 ft | 452 kts | 8° |
| 2026-05-06 07:15 | 44.46902 | 15.65712 | 37822 ft | 451 kts | 9° |
| 2026-05-06 07:16 | 44.49978 | 15.66718 | 37935 ft | 454 kts | 9° |
| 2026-05-06 07:16 | 44.56142 | 15.68739 | 37975 ft | 455 kts | 9° |
| 2026-05-06 07:17 | 44.62273 | 15.70757 | 37978 ft | 455 kts | 9° |
| 2026-05-06 07:17 | 44.65329 | 15.71763 | 37854 ft | 454 kts | 9° |
| 2026-05-06 07:17 | 44.68409 | 15.72779 | 37893 ft | 454 kts | 8° |
| 2026-05-06 07:18 | 44.74539 | 15.74802 | 37963 ft | 455 kts | 9° |
| 2026-05-06 07:18 | 44.77597 | 15.75813 | 38101 ft | 454 kts | 9° |
| 2026-05-06 07:18 | 44.80678 | 15.76835 | 38017 ft | 453 kts | 8° |
| 2026-05-06 07:19 | 44.86773 | 15.78857 | 37973 ft | 452 kts | 8° |
| 2026-05-06 07:19 | 44.92924 | 15.80900 | 37993 ft | 454 kts | 8° |
| 2026-05-06 07:20 | 44.99049 | 15.82940 | 37981 ft | 454 kts | 8° |
| 2026-05-06 07:20 | 45.05156 | 15.84980 | 37961 ft | 453 kts | 8° |
| 2026-05-06 07:20 | 45.08245 | 15.86013 | 37747 ft | 453 kts | 8° |
| 2026-05-06 07:21 | 45.11272 | 15.87027 | 38075 ft | 454 kts | 8° |
| 2026-05-06 07:21 | 45.17424 | 15.89092 | 37969 ft | 452 kts | 8° |
| 2026-05-06 07:21 | 45.20465 | 15.90113 | 37852 ft | 453 kts | 8° |
| 2026-05-06 07:22 | 45.23517 | 15.91129 | 37844 ft | 453 kts | 8° |
| 2026-05-06 07:22 | 45.29670 | 15.93049 | 37941 ft | 453 kts | 7° |
| 2026-05-06 07:23 | 45.35814 | 15.94947 | 37940 ft | 454 kts | 7° |
| 2026-05-06 07:23 | 45.41974 | 15.96868 | 37903 ft | 454 kts | 7° |
| 2026-05-06 07:24 | 45.48130 | 15.98796 | 37889 ft | 453 kts | 8° |
| 2026-05-06 07:24 | 45.54294 | 16.00730 | 37937 ft | 454 kts | 8° |
| 2026-05-06 07:25 | 45.60413 | 16.02656 | 37939 ft | 454 kts | 8° |
| 2026-05-06 07:25 | 45.66594 | 16.04608 | 37934 ft | 453 kts | 8° |
| 2026-05-06 07:26 | 45.72712 | 16.06545 | 37932 ft | 452 kts | 8° |
| 2026-05-06 07:26 | 45.78872 | 16.08497 | 37938 ft | 452 kts | 8° |
| 2026-05-06 07:27 | 45.84947 | 16.10425 | 37932 ft | 451 kts | 8° |
| 2026-05-06 07:27 | 45.91093 | 16.12380 | 37887 ft | 453 kts | 8° |
| 2026-05-06 07:27 | 45.94177 | 16.13364 | 37549 ft | 452 kts | 8° |
| 2026-05-06 07:28 | 45.97214 | 16.14339 | 37171 ft | 448 kts | 7° |
| 2026-05-06 07:28 | 46.00216 | 16.15303 | 36743 ft | 445 kts | 7° |
| 2026-05-06 07:28 | 46.06251 | 16.17236 | 35711 ft | 445 kts | 7° |
| 2026-05-06 07:29 | 46.09265 | 16.18200 | 35126 ft | 446 kts | 7° |
| 2026-05-06 07:29 | 46.12283 | 16.19169 | 34517 ft | 449 kts | 7° |
| 2026-05-06 07:29 | 46.15345 | 16.20153 | 33834 ft | 451 kts | 7° |
| 2026-05-06 07:29 | 46.18377 | 16.21125 | 33165 ft | 452 kts | 7° |
| 2026-05-06 07:30 | 46.21453 | 16.22111 | 32511 ft | 452 kts | 7° |
| 2026-05-06 07:30 | 46.24505 | 16.23096 | 31856 ft | 452 kts | 8° |
| 2026-05-06 07:30 | 46.27575 | 16.24089 | 31183 ft | 453 kts | 8° |
| 2026-05-06 07:30 | 46.30606 | 16.25069 | 30521 ft | 454 kts | 8° |
| 2026-05-06 07:31 | 46.33665 | 16.26048 | 30061 ft | 448 kts | 7° |
| 2026-05-06 07:31 | 46.36726 | 16.26667 | 29592 ft | 441 kts | 0° |
| 2026-05-06 07:31 | 46.39761 | 16.26761 | 29121 ft | 433 kts | 353° |
| 2026-05-06 07:31 | 46.42717 | 16.26355 | 28666 ft | 426 kts | 347° |
| 2026-05-06 07:32 | 46.45627 | 16.25693 | 28206 ft | 421 kts | 346° |
| 2026-05-06 07:32 | 46.48510 | 16.24983 | 27748 ft | 418 kts | 346° |
| 2026-05-06 07:32 | 46.51342 | 16.24280 | 27301 ft | 415 kts | 346° |
| 2026-05-06 07:32 | 46.54168 | 16.23589 | 26844 ft | 412 kts | 346° |
| 2026-05-06 07:33 | 46.56985 | 16.22910 | 26390 ft | 409 kts | 346° |
| 2026-05-06 07:33 | 46.59787 | 16.22237 | 25947 ft | 406 kts | 346° |
| 2026-05-06 07:33 | 46.62538 | 16.21579 | 25496 ft | 403 kts | 346° |
| 2026-05-06 07:33 | 46.65302 | 16.20920 | 25047 ft | 401 kts | 346° |
| 2026-05-06 07:34 | 46.68028 | 16.20269 | 24598 ft | 398 kts | 346° |
| 2026-05-06 07:34 | 46.70763 | 16.19618 | 24139 ft | 396 kts | 346° |
| 2026-05-06 07:34 | 46.73447 | 16.18977 | 23689 ft | 394 kts | 346° |
| 2026-05-06 07:34 | 46.76152 | 16.18331 | 23248 ft | 392 kts | 346° |
| 2026-05-06 07:35 | 46.78821 | 16.17693 | 22808 ft | 390 kts | 346° |
| 2026-05-06 07:35 | 46.81499 | 16.17050 | 22357 ft | 388 kts | 346° |
| 2026-05-06 07:35 | 46.84132 | 16.16417 | 21911 ft | 386 kts | 346° |
| 2026-05-06 07:35 | 46.86758 | 16.15785 | 21468 ft | 385 kts | 346° |
| 2026-05-06 07:36 | 46.89405 | 16.15151 | 21023 ft | 383 kts | 346° |
| 2026-05-06 07:36 | 46.92027 | 16.14520 | 20577 ft | 381 kts | 346° |
| 2026-05-06 07:36 | 46.94614 | 16.13897 | 20134 ft | 380 kts | 346° |
| 2026-05-06 07:36 | 46.97221 | 16.13268 | 19689 ft | 378 kts | 347° |
| 2026-05-06 07:37 | 46.99780 | 16.12651 | 19258 ft | 376 kts | 347° |
| 2026-05-06 07:37 | 47.02375 | 16.12026 | 18824 ft | 374 kts | 347° |
| 2026-05-06 07:37 | 47.04916 | 16.11412 | 18387 ft | 372 kts | 347° |
| 2026-05-06 07:37 | 47.07470 | 16.10794 | 17948 ft | 370 kts | 347° |
| 2026-05-06 07:38 | 47.10003 | 16.10180 | 17516 ft | 368 kts | 347° |
| 2026-05-06 07:38 | 47.12514 | 16.09572 | 17086 ft | 366 kts | 347° |
| 2026-05-06 07:38 | 47.15016 | 16.08965 | 16649 ft | 364 kts | 347° |
| 2026-05-06 07:38 | 47.17494 | 16.08363 | 16216 ft | 362 kts | 347° |
| 2026-05-06 07:39 | 47.19958 | 16.07766 | 15794 ft | 360 kts | 347° |
| 2026-05-06 07:39 | 47.22432 | 16.07165 | 15356 ft | 358 kts | 347° |
| 2026-05-06 07:39 | 47.24859 | 16.06574 | 14940 ft | 356 kts | 347° |
| 2026-05-06 07:39 | 47.27289 | 16.05982 | 14523 ft | 354 kts | 347° |
| 2026-05-06 07:40 | 47.29723 | 16.05387 | 14097 ft | 352 kts | 347° |
| 2026-05-06 07:40 | 47.32117 | 16.04803 | 13682 ft | 351 kts | 347° |
| 2026-05-06 07:40 | 47.34527 | 16.04214 | 13273 ft | 349 kts | 348° |
| 2026-05-06 07:40 | 47.36953 | 16.04025 | 12842 ft | 352 kts | 2° |
| 2026-05-06 07:41 | 47.39307 | 16.04704 | 12724 ft | 349 kts | 15° |
| 2026-05-06 07:41 | 47.41626 | 16.05816 | 12748 ft | 350 kts | 17° |
| 2026-05-06 07:41 | 47.43916 | 16.06988 | 12770 ft | 351 kts | 17° |
| 2026-05-06 07:41 | 47.46236 | 16.08176 | 12797 ft | 351 kts | 17° |
| 2026-05-06 07:42 | 47.48550 | 16.09350 | 12822 ft | 352 kts | 17° |
| 2026-05-06 07:42 | 47.50869 | 16.10517 | 12843 ft | 351 kts | 17° |
| 2026-05-06 07:42 | 47.53159 | 16.11663 | 12851 ft | 351 kts | 17° |
| 2026-05-06 07:42 | 47.55472 | 16.12817 | 12850 ft | 351 kts | 17° |
| 2026-05-06 07:43 | 47.57776 | 16.13965 | 12855 ft | 350 kts | 16° |
| 2026-05-06 07:43 | 47.60082 | 16.15115 | 12856 ft | 351 kts | 17° |
| 2026-05-06 07:43 | 47.62412 | 16.16277 | 12846 ft | 351 kts | 16° |
| 2026-05-06 07:43 | 47.64724 | 16.17432 | 12839 ft | 351 kts | 16° |
| 2026-05-06 07:44 | 47.67009 | 16.18573 | 12836 ft | 350 kts | 16° |
| 2026-05-06 07:44 | 47.69322 | 16.19729 | 12840 ft | 351 kts | 16° |
| 2026-05-06 07:44 | 47.71624 | 16.20881 | 12839 ft | 350 kts | 16° |
| 2026-05-06 07:44 | 47.73931 | 16.22036 | 12836 ft | 350 kts | 17° |
| 2026-05-06 07:45 | 47.76138 | 16.23535 | 12828 ft | 353 kts | 34° |
| 2026-05-06 07:45 | 47.77872 | 16.26136 | 12835 ft | 353 kts | 56° |
| 2026-05-06 07:45 | 47.79120 | 16.29227 | 12837 ft | 353 kts | 61° |
| 2026-05-06 07:45 | 47.80309 | 16.32419 | 12838 ft | 352 kts | 62° |
| 2026-05-06 07:46 | 47.81506 | 16.35621 | 12837 ft | 353 kts | 61° |
| 2026-05-06 07:46 | 47.82704 | 16.38771 | 12842 ft | 353 kts | 61° |
| 2026-05-06 07:46 | 47.82957 | 16.39431 | 12842 ft | 353 kts | 60° |